الصفحة الرئيسية
METAR-TAF:

METAR-TAF

مطار :

كوشيتسه, سلوفاكيا

دائرة عرض: 48-39-47N, خط طول: 021-14-28E, ارتفاع: 232 متر

مراقبة الطقس الحالي

تاريخ ووقت الإصدار 20 دقيقة قبل الساعة 13:30UTC
ريح 11 عقدة من الشمال, الاتجاه يتراوح بين الشمال/الشمال الغربي و الشمال/الشمال الشرقي
درجة الحرارة 28°درجة مئوية
الرطوبة 45%
ضغط 1010 hPa
الرؤية 10 كم أو أكثر
الغيوم لا تقل 1500 م ولا وجود لمزنة ركامية السحاب الأسود

METAR: LZKZ 201330Z 01011KT 330V030 CAVOK 28/15 Q1010 NOSIG

زمن: 15:50 (13:50 UTC)

توقعات

تاريخ ووقت الإصدار 2ساعات و 35 دقيقة قبل الساعة 11:15UTC
التوقعات صالحة من20 الساعة 12 UTC إلى 21 الساعة 12 UTC
ريح 5 عقدة من الشمال/الشمال الشرقي
الرؤية 10 كم أو أكثر
الغيوم لا تقل 1500 م ولا وجود لمزنة ركامية السحاب الأسود
مؤقت
من 20 الساعة 12 UTC إلى 20 الساعة 18 UTC
ريح 12 عقدة من الشمال

TAF: LZKZ 201115Z 2012/2112 03005KT CAVOK TEMPO 2012/2018 01012KT

أرصاد الطقس والتوقعات من أكثر من 4000 مطار (تقارير الطقس للمطار METAR والتنبؤ بالطقس بالمطارTAF).

المحطات المتاحة هي النقط الصفراء والحمراء على الخريطة.

حرك المؤشر فوق النقطة لمعرفة اسم المحطة.

ثم انقر لمعرفة أرصاد وتوقعات الطقس.

لتغيير الخارطة: اضغط على الأزرار الخضراء مع رمز الصليب الأسود للتكبير. على الزر الأخضر مع شرطة للتصغير، أو على الأسهم الخضراء للخرائط المجاورة.


METAR-TAF: